Time;durP1;ratioP1;P1;durP2;ratioP2;P2;SDS_P1;SDS_P2;PMS_P1;PMS_P2;Temp;Humidity;BMP_temperature;BMP_pressure;BME280_temperature;BME280_humidity;BME280_pressure;Samples;Min_cycle;Max_cycle;Signal;HPM_P1;HPM_P2
2022/03/28 00:07:53;;;;;;;17.70;8.25;;;;;;;;;;20926110;28;20037;-60
2022/03/28 00:17:56;;;;;;;21.67;9.15;;;;;;;;;;20927142;28;20120;-58
2022/03/28 00:27:58;;;;;;;18.83;10.38;;;;;;;;;;20925201;28;20061;-59
2022/03/28 00:38:00;;;;;;;21.05;10.18;;;;;;;;;;20924038;28;20052;-59
2022/03/28 00:48:02;;;;;;;20.90;9.18;;;;;;;;;;20923075;28;20083;-54
2022/03/28 00:58:04;;;;;;;29.02;10.30;;;;;;;;;;20922742;28;20048;-57
2022/03/28 01:08:06;;;;;;;20.95;8.77;;;;;;;;;;20921968;28;20074;-56
2022/03/28 01:18:11;;;;;;;22.95;9.35;;;;;;;;;;20920959;28;20398;-58
2022/03/28 01:28:15;;;;;;;16.98;9.75;;;;;;;;;;20920604;28;20140;-56
2022/03/28 01:38:19;;;;;;;19.15;9.63;;;;;;;;;;20919787;28;20413;-59
2022/03/28 01:48:22;;;;;;;23.67;10.77;;;;;;;;;;20920109;28;20450;-58
2022/03/28 01:58:24;;;;;;;23.65;9.48;;;;;;;;;;20918084;28;20053;-58
2022/03/28 02:08:26;;;;;;;20.02;9.23;;;;;;;;;;20917944;28;20048;-57
2022/03/28 02:18:29;;;;;;;21.48;9.07;;;;;;;;;;20917052;28;20485;-56
2022/03/28 02:28:31;;;;;;;20.23;7.78;;;;;;;;;;20914236;28;20150;-58
2022/03/28 02:38:35;;;;;;;20.30;8.97;;;;;;;;;;20913496;28;20045;-55
2022/03/28 02:48:40;;;;;;;24.83;8.63;;;;;;;;;;20914089;28;20490;-54
2022/03/28 02:58:44;;;;;;;26.73;9.30;;;;;;;;;;20913424;28;20109;-55
2022/03/28 03:08:48;;;;;;;26.42;8.82;;;;;;;;;;20914018;28;20099;-55
2022/03/28 03:18:51;;;;;;;20.25;8.13;;;;;;;;;;20911623;28;20053;-56
2022/03/28 03:28:55;;;;;;;22.13;7.80;;;;;;;;;;20911687;28;20136;-57
2022/03/28 03:38:58;;;;;;;16.07;8.07;;;;;;;;;;20920192;28;20084;-57
2022/03/28 03:49:00;;;;;;;24.70;8.80;;;;;;;;;;20927887;28;20142;-58
2022/03/28 03:59:03;;;;;;;23.55;8.50;;;;;;;;;;20927009;28;20412;-55
2022/03/28 04:09:05;;;;;;;21.23;10.90;;;;;;;;;;20927470;28;20128;-58
2022/03/28 04:19:08;;;;;;;23.70;9.98;;;;;;;;;;20927027;28;20103;-58
2022/03/28 04:29:11;;;;;;;26.58;9.07;;;;;;;;;;20924933;28;20104;-57
2022/03/28 04:39:15;;;;;;;24.13;10.53;;;;;;;;;;20924238;28;20068;-58
2022/03/28 04:49:18;;;;;;;24.15;9.20;;;;;;;;;;20923029;28;20049;-54
2022/03/28 04:59:20;;;;;;;18.90;9.15;;;;;;;;;;20922770;28;20045;-54
2022/03/28 05:09:22;;;;;;;22.48;10.55;;;;;;;;;;20921849;28;20049;-56
2022/03/28 05:19:24;;;;;;;23.90;11.40;;;;;;;;;;20921167;28;20478;-57
2022/03/28 05:29:26;;;;;;;28.98;10.52;;;;;;;;;;20919670;28;20057;-57
2022/03/28 05:39:29;;;;;;;35.58;11.40;;;;;;;;;;20918925;28;20532;-57
2022/03/28 05:49:31;;;;;;;19.63;9.80;;;;;;;;;;20919921;28;20504;-58
2022/03/28 05:59:34;;;;;;;23.40;10.32;;;;;;;;;;20917557;28;20080;-58
2022/03/28 06:09:35;;;;;;;44.42;23.13;;;;;;;;;;20917122;28;20056;-56
2022/03/28 06:19:38;;;;;;;21.15;11.68;;;;;;;;;;20915237;28;20049;-58
2022/03/28 06:29:40;;;;;;;31.08;11.27;;;;;;;;;;20914858;28;20068;-54
2022/03/28 06:39:43;;;;;;;26.27;10.73;;;;;;;;;;20928886;28;20060;-55
2022/03/28 06:49:45;;;;;;;27.10;10.57;;;;;;;;;;20913154;28;20183;-57
2022/03/28 06:59:48;;;;;;;28.80;12.07;;;;;;;;;;20912132;28;20056;-59
2022/03/28 07:09:50;;;;;;;21.45;10.43;;;;;;;;;;20912022;28;20044;-58
2022/03/28 07:19:52;;;;;;;39.13;12.20;;;;;;;;;;20911985;28;20068;-59
2022/03/28 07:29:54;;;;;;;27.23;10.30;;;;;;;;;;20911231;28;20478;-59
2022/03/28 07:39:57;;;;;;;16.77;9.35;;;;;;;;;;20910573;28;20052;-57
2022/03/28 07:50:02;;;;;;;21.10;8.93;;;;;;;;;;20912274;28;20495;-60
2022/03/28 08:00:06;;;;;;;31.27;10.77;;;;;;;;;;20910406;28;20132;-58
2022/03/28 08:10:09;;;;;;;20.58;7.88;;;;;;;;;;20910029;28;20469;-58
2022/03/28 08:20:12;;;;;;;20.25;7.38;;;;;;;;;;20910166;28;20061;-57
2022/03/28 08:30:15;;;;;;;21.85;8.65;;;;;;;;;;20924871;28;20131;-56
2022/03/28 08:40:18;;;;;;;17.63;6.90;;;;;;;;;;20924638;28;20088;-58
2022/03/28 08:50:20;;;;;;;20.75;7.03;;;;;;;;;;20923455;28;20095;-56
2022/03/28 09:00:22;;;;;;;18.67;6.80;;;;;;;;;;20922853;28;20136;-58
2022/03/28 09:10:24;;;;;;;17.00;7.57;;;;;;;;;;20921532;28;20056;-57
2022/03/28 09:20:26;;;;;;;18.25;5.88;;;;;;;;;;20921146;28;20080;-59
2022/03/28 09:30:33;;;;;;;22.20;6.45;;;;;;;;;;20920890;28;20049;-54
2022/03/28 09:40:42;;;;;;;15.65;6.05;;;;;;;;;;20919798;28;20497;-58
2022/03/28 09:50:46;;;;;;;18.55;6.15;;;;;;;;;;20911941;28;20089;-55
2022/03/28 10:00:49;;;;;;;18.37;5.80;;;;;;;;;;20854442;28;20100;-58
2022/03/28 10:10:51;;;;;;;10.27;5.85;;;;;;;;;;20867649;28;20115;-58
2022/03/28 10:20:56;;;;;;;15.05;5.32;;;;;;;;;;20865395;28;20103;-58
2022/03/28 10:31:07;;;;;;;17.30;7.43;;;;;;;;;;20834431;28;20375;-58
2022/03/28 10:41:14;;;;;;;13.10;5.90;;;;;;;;;;20832124;28;20060;-54
2022/03/28 10:51:18;;;;;;;21.77;5.70;;;;;;;;;;20831085;28;20041;-58
2022/03/28 11:01:33;;;;;;;17.50;6.00;;;;;;;;;;20831694;28;20050;-59
2022/03/28 11:11:35;;;;;;;11.18;5.60;;;;;;;;;;20830185;28;20053;-57
2022/03/28 11:21:55;;;;;;;12.57;5.53;;;;;;;;;;20876937;28;20056;-54
2022/03/28 11:31:57;;;;;;;14.70;7.10;;;;;;;;;;20830267;28;20136;-56
2022/03/28 11:41:59;;;;;;;23.10;6.90;;;;;;;;;;20827930;28;20100;-57
2022/03/28 11:52:03;;;;;;;13.07;6.40;;;;;;;;;;20828432;28;20049;-57
2022/03/28 12:02:08;;;;;;;14.05;5.82;;;;;;;;;;20840707;28;20395;-55
2022/03/28 12:12:11;;;;;;;20.92;7.45;;;;;;;;;;20843246;28;20081;-57
2022/03/28 12:22:16;;;;;;;17.83;6.32;;;;;;;;;;20841823;28;20049;-53
2022/03/28 12:32:20;;;;;;;13.30;6.88;;;;;;;;;;20843623;28;20132;-58
2022/03/28 12:42:28;;;;;;;20.10;6.77;;;;;;;;;;20841366;28;20050;-57
2022/03/28 12:52:31;;;;;;;15.65;7.68;;;;;;;;;;20841477;28;20068;-56
2022/03/28 13:02:33;;;;;;;18.33;6.47;;;;;;;;;;20841369;28;20049;-58
2022/03/28 13:12:35;;;;;;;26.00;7.90;;;;;;;;;;20837691;28;20050;-56
2022/03/28 13:22:39;;;;;;;15.85;7.47;;;;;;;;;;20838754;28;20061;-56
2022/03/28 13:32:41;;;;;;;24.90;6.90;;;;;;;;;;20838158;28;20132;-57
2022/03/28 13:42:43;;;;;;;20.13;7.05;;;;;;;;;;20836785;28;20363;-56
2022/03/28 13:52:45;;;;;;;17.25;8.35;;;;;;;;;;20836142;28;20073;-58
2022/03/28 14:02:48;;;;;;;29.00;8.73;;;;;;;;;;20835675;28;20063;-57
2022/03/28 14:12:50;;;;;;;23.00;7.50;;;;;;;;;;20834040;28;20057;-56
2022/03/28 14:22:52;;;;;;;23.50;7.90;;;;;;;;;;20834054;28;20383;-56
2022/03/28 14:32:55;;;;;;;19.35;6.53;;;;;;;;;;20833164;28;20045;-55
2022/03/28 14:42:56;;;;;;;23.63;7.70;;;;;;;;;;20831999;28;20042;-61
2022/03/28 14:52:59;;;;;;;18.73;6.78;;;;;;;;;;20832376;28;20405;-60
2022/03/28 15:03:02;;;;;;;19.35;6.70;;;;;;;;;;20830805;28;20049;-58
2022/03/28 15:13:06;;;;;;;24.50;7.00;;;;;;;;;;20829989;28;20091;-56
2022/03/28 15:23:09;;;;;;;30.70;7.45;;;;;;;;;;20829272;28;20049;-63
2022/03/28 15:33:12;;;;;;;30.48;9.30;;;;;;;;;;20826202;28;20053;-60
2022/03/28 15:43:15;;;;;;;34.70;8.73;;;;;;;;;;20826529;28;20050;-55
2022/03/28 15:53:19;;;;;;;34.22;7.68;;;;;;;;;;20827163;28;20049;-56
2022/03/28 16:03:21;;;;;;;31.47;8.63;;;;;;;;;;20828394;28;20053;-57
2022/03/28 16:13:23;;;;;;;36.03;9.57;;;;;;;;;;20826984;28;20136;-56
2022/03/28 16:23:25;;;;;;;32.28;8.10;;;;;;;;;;20826671;28;20053;-58
2022/03/28 16:33:28;;;;;;;36.83;9.07;;;;;;;;;;20827577;28;20110;-58
2022/03/28 16:43:30;;;;;;;35.65;9.13;;;;;;;;;;20828500;28;20053;-59
2022/03/28 16:53:32;;;;;;;36.38;8.32;;;;;;;;;;20840660;28;20468;-61
2022/03/28 17:03:34;;;;;;;33.22;9.07;;;;;;;;;;20839471;28;20509;-56
2022/03/28 17:13:36;;;;;;;29.92;8.15;;;;;;;;;;20840038;28;20053;-57
2022/03/28 17:23:38;;;;;;;34.80;8.60;;;;;;;;;;20837857;28;20064;-57
2022/03/28 17:33:40;;;;;;;30.90;8.23;;;;;;;;;;20837182;28;20132;-58
2022/03/28 17:43:43;;;;;;;28.95;10.23;;;;;;;;;;20837521;28;20406;-56
2022/03/28 17:53:45;;;;;;;37.50;9.13;;;;;;;;;;20834770;28;20055;-57
2022/03/28 18:03:47;;;;;;;41.47;10.05;;;;;;;;;;20835035;28;20053;-58
2022/03/28 18:13:49;;;;;;;39.05;11.15;;;;;;;;;;20833869;28;20054;-58
2022/03/28 18:23:51;;;;;;;36.88;10.13;;;;;;;;;;20832757;28;20057;-57
2022/03/28 18:33:53;;;;;;;47.17;10.82;;;;;;;;;;20833095;28;20072;-58
2022/03/28 18:43:56;;;;;;;36.30;10.95;;;;;;;;;;20831623;28;20079;-57
2022/03/28 18:53:58;;;;;;;53.47;12.25;;;;;;;;;;20830696;28;20417;-57
2022/03/28 19:04:03;;;;;;;34.45;10.48;;;;;;;;;;20830059;28;20095;-57
2022/03/28 19:14:05;;;;;;;51.33;12.13;;;;;;;;;;20830997;28;20052;-57
2022/03/28 19:24:08;;;;;;;42.35;11.88;;;;;;;;;;20829703;28;20065;-57
2022/03/28 19:34:10;;;;;;;49.05;12.63;;;;;;;;;;20830222;28;20053;-57
2022/03/28 19:44:19;;;;;;;37.05;11.57;;;;;;;;;;20828949;28;20478;-58
2022/03/28 19:54:21;;;;;;;44.22;11.48;;;;;;;;;;20829906;28;20049;-58
2022/03/28 20:04:26;;;;;;;42.80;13.18;;;;;;;;;;20829306;28;20064;-55
2022/03/28 20:14:28;;;;;;;44.45;11.88;;;;;;;;;;20827226;28;20100;-58
2022/03/28 20:24:30;;;;;;;53.08;12.13;;;;;;;;;;20841576;28;20060;-56
2022/03/28 20:34:32;;;;;;;40.38;12.90;;;;;;;;;;20842612;28;20049;-57
2022/03/28 20:44:34;;;;;;;47.75;12.15;;;;;;;;;;20841612;28;20505;-58
2022/03/28 20:54:36;;;;;;;42.60;10.80;;;;;;;;;;20840633;28;20045;-57
2022/03/28 21:04:38;;;;;;;50.00;12.27;;;;;;;;;;20841153;28;20433;-57
2022/03/28 21:14:41;;;;;;;41.35;11.68;;;;;;;;;;20839839;28;20124;-57
2022/03/28 21:24:43;;;;;;;50.38;13.73;;;;;;;;;;20838152;28;20085;-57
2022/03/28 21:34:45;;;;;;;45.33;11.68;;;;;;;;;;20837248;28;20497;-56
2022/03/28 21:44:48;;;;;;;44.15;12.05;;;;;;;;;;20837513;28;20067;-55
2022/03/28 21:54:51;;;;;;;53.85;13.20;;;;;;;;;;20836123;28;20046;-55
2022/03/28 22:04:53;;;;;;;45.95;11.95;;;;;;;;;;20835619;28;20089;-57
2022/03/28 22:14:56;;;;;;;48.53;12.90;;;;;;;;;;20835617;28;20123;-57
2022/03/28 22:24:58;;;;;;;51.47;13.38;;;;;;;;;;20833534;28;20060;-56
2022/03/28 22:35:00;;;;;;;50.20;12.60;;;;;;;;;;20833403;28;20046;-55
2022/03/28 22:45:04;;;;;;;37.60;11.88;;;;;;;;;;20833153;28;20049;-55
2022/03/28 22:55:07;;;;;;;41.72;13.48;;;;;;;;;;20832176;28;20056;-57
2022/03/28 23:05:10;;;;;;;57.90;13.68;;;;;;;;;;20831288;28;20103;-56
2022/03/28 23:15:12;;;;;;;44.65;12.80;;;;;;;;;;20830397;28;20052;-56
2022/03/28 23:25:14;;;;;;;59.25;13.35;;;;;;;;;;20830215;28;20053;-57
2022/03/28 23:35:16;;;;;;;41.92;12.73;;;;;;;;;;20829853;28;20132;-57
2022/03/28 23:45:18;;;;;;;48.83;13.07;;;;;;;;;;20828841;28;20140;-57
2022/03/28 23:55:20;;;;;;;35.70;10.80;;;;;;;;;;20837043;28;20045;-57
